createdAt,value
2017-12-10T00:00:48.902Z,79.80
2017-12-10T00:03:16.467Z,79.60
2017-12-10T00:05:44.058Z,79.90
2017-12-10T00:08:11.672Z,79.80
2017-12-10T00:10:40.005Z,79.10
2017-12-10T00:13:07.602Z,79.10
2017-12-10T00:15:35.164Z,78.90
2017-12-10T00:18:03.564Z,77.30
2017-12-10T00:20:31.160Z,77.20
2017-12-10T00:22:58.738Z,76.90
2017-12-10T00:25:26.310Z,76.60
2017-12-10T00:27:53.924Z,76.50
2017-12-10T00:30:21.502Z,76.00
2017-12-10T00:32:49.074Z,76.60
2017-12-10T00:35:16.670Z,76.70
2017-12-10T00:37:44.991Z,76.30
2017-12-10T00:40:12.568Z,76.20
2017-12-10T00:42:40.161Z,76.60
2017-12-10T00:45:08.507Z,77.30
2017-12-10T00:47:36.102Z,77.30
2017-12-10T00:50:04.474Z,77.50
2017-12-10T00:52:32.052Z,77.60
2017-12-10T00:55:00.377Z,78.30
2017-12-10T00:57:27.978Z,78.30
2017-12-10T00:59:56.314Z,77.90
2017-12-10T01:02:23.867Z,77.80
2017-12-10T01:04:51.450Z,77.70
2017-12-10T01:07:18.988Z,77.70
2017-12-10T01:09:46.559Z,78.50
2017-12-10T01:12:14.175Z,77.20
2017-12-10T01:14:48.440Z,77.60
2017-12-10T01:17:16.819Z,77.60
2017-12-10T01:19:44.400Z,77.50
2017-12-10T01:22:11.981Z,77.50
2017-12-10T01:24:39.594Z,77.30
2017-12-10T01:27:07.145Z,77.30
2017-12-10T01:29:34.701Z,77.70
2017-12-10T01:32:02.293Z,77.50
2017-12-10T01:34:29.855Z,78.30
2017-12-10T01:36:57.424Z,79.00
2017-12-10T01:39:25.004Z,78.30
2017-12-10T01:41:52.552Z,78.40
2017-12-10T01:44:20.914Z,79.50
2017-12-10T01:46:48.555Z,79.50
2017-12-10T01:49:16.114Z,79.10
2017-12-10T01:51:43.673Z,78.70
2017-12-10T01:54:11.265Z,79.20
2017-12-10T01:56:38.820Z,79.20
2017-12-10T01:59:06.392Z,78.50
2017-12-10T02:01:34.029Z,79.20
2017-12-10T02:04:01.591Z,79.00
2017-12-10T02:06:29.157Z,79.10
2017-12-10T02:08:56.735Z,79.60
2017-12-10T02:11:24.319Z,80.00
2017-12-10T02:13:51.884Z,78.70
2017-12-10T02:16:19.475Z,79.00
2017-12-10T02:18:47.040Z,79.00
2017-12-10T02:21:14.590Z,79.00
2017-12-10T02:23:42.150Z,79.50
2017-12-10T02:26:09.695Z,79.50
2017-12-10T02:28:37.305Z,79.60
2017-12-10T02:31:04.867Z,80.10
2017-12-10T02:33:32.455Z,79.70
2017-12-10T02:36:00.790Z,79.70
2017-12-10T02:38:28.369Z,79.70
2017-12-10T02:40:55.986Z,79.80
2017-12-10T02:43:23.584Z,80.10
2017-12-10T02:45:51.138Z,79.80
2017-12-10T02:48:18.726Z,80.00
2017-12-10T02:50:46.285Z,79.70
2017-12-10T02:53:13.866Z,80.00
2017-12-10T02:55:41.466Z,79.90
2017-12-10T02:58:09.036Z,80.10
2017-12-10T03:00:36.630Z,80.00
2017-12-10T03:03:04.212Z,80.00
2017-12-10T03:05:32.547Z,79.70
2017-12-10T03:08:00.141Z,79.70
2017-12-10T03:10:28.621Z,79.90
2017-12-10T03:12:56.198Z,79.50
2017-12-10T03:15:23.783Z,79.30
2017-12-10T03:17:51.376Z,79.60
2017-12-10T03:20:18.987Z,80.20
2017-12-10T03:22:46.545Z,80.10
2017-12-10T03:25:14.203Z,80.30
2017-12-10T03:27:41.731Z,80.10
2017-12-10T03:30:09.308Z,80.00
2017-12-10T03:32:37.632Z,80.20
2017-12-10T03:35:05.218Z,80.00
2017-12-10T03:37:32.805Z,80.10
2017-12-10T03:40:09.074Z,80.60
2017-12-10T03:42:37.430Z,80.30
2017-12-10T03:45:04.990Z,80.30
2017-12-10T03:47:32.568Z,80.30
2017-12-10T03:50:00.882Z,80.10
2017-12-10T03:52:28.462Z,80.10
2017-12-10T03:54:56.014Z,79.20
2017-12-10T03:57:23.592Z,79.30
2017-12-10T03:59:51.153Z,79.30
2017-12-10T04:02:18.707Z,77.80
2017-12-10T04:04:46.279Z,78.50
2017-12-10T04:07:13.867Z,77.10
2017-12-10T04:09:42.190Z,78.40
2017-12-10T04:12:09.755Z,78.30
2017-12-10T04:14:37.311Z,79.30
2017-12-10T04:17:04.871Z,77.60
2017-12-10T04:19:32.455Z,77.70
2017-12-10T04:22:00.031Z,78.80
2017-12-10T04:24:27.682Z,78.00
2017-12-10T04:26:55.212Z,77.40
2017-12-10T04:29:22.788Z,77.90
2017-12-10T04:31:50.391Z,76.40
2017-12-10T04:34:17.981Z,77.70
2017-12-10T04:36:45.573Z,76.20
2017-12-10T04:39:13.150Z,77.00
2017-12-10T04:41:40.883Z,76.30
2017-12-10T04:44:08.460Z,75.90
2017-12-10T04:46:36.064Z,76.40
2017-12-10T04:49:04.409Z,76.90
2017-12-10T04:51:31.997Z,76.80
2017-12-10T04:54:00.332Z,76.10
2017-12-10T04:56:27.896Z,76.10
2017-12-10T04:58:55.466Z,76.10
2017-12-10T05:01:23.035Z,75.00
2017-12-10T05:03:50.587Z,74.10
2017-12-10T05:06:18.163Z,74.40
2017-12-10T05:08:45.758Z,75.40
2017-12-10T05:11:13.354Z,76.50
2017-12-10T05:13:40.956Z,74.90
2017-12-10T05:16:09.303Z,74.20
2017-12-10T05:18:36.856Z,74.20
2017-12-10T05:21:04.432Z,74.70
2017-12-10T05:23:32.022Z,75.00
2017-12-10T05:26:00.399Z,75.30
2017-12-10T05:28:28.772Z,74.60
2017-12-10T05:30:56.328Z,74.60
2017-12-10T05:33:23.915Z,73.80
2017-12-10T05:35:51.486Z,73.80
2017-12-10T05:38:19.093Z,74.00
2017-12-10T05:40:46.687Z,74.40
2017-12-10T05:43:15.011Z,74.70
2017-12-10T05:45:42.591Z,74.60
2017-12-10T05:48:10.166Z,73.80
2017-12-10T05:50:37.768Z,73.40
2017-12-10T05:53:05.357Z,73.60
2017-12-10T05:55:32.928Z,72.80
2017-12-10T05:58:00.487Z,73.60
2017-12-10T06:00:28.063Z,72.30
2017-12-10T06:02:55.619Z,72.80
2017-12-10T06:05:23.190Z,73.50
2017-12-10T06:07:50.788Z,74.00
2017-12-10T06:10:18.359Z,72.40
2017-12-10T06:12:45.975Z,72.00
2017-12-10T06:15:13.523Z,73.20
2017-12-10T06:17:41.135Z,72.60
2017-12-10T06:20:09.667Z,72.40
2017-12-10T06:22:37.235Z,72.50
2017-12-10T06:25:04.810Z,72.30
2017-12-10T06:27:33.195Z,72.20
2017-12-10T06:30:00.766Z,72.20
2017-12-10T06:32:28.349Z,72.00
2017-12-10T06:34:55.955Z,71.80
2017-12-10T06:37:24.362Z,71.90
2017-12-10T06:39:52.726Z,71.40
2017-12-10T06:42:21.044Z,70.60
2017-12-10T06:44:48.639Z,70.50
2017-12-10T06:47:18.146Z,71.20
2017-12-10T06:49:45.707Z,72.00
2017-12-10T06:52:13.302Z,72.80
2017-12-10T06:54:41.670Z,70.80
2017-12-10T06:57:10.043Z,72.00
2017-12-10T06:59:38.394Z,72.50
2017-12-10T07:02:05.998Z,72.40
2017-12-10T07:04:34.363Z,72.20
2017-12-10T07:07:01.923Z,72.20
2017-12-10T07:09:29.494Z,73.30
2017-12-10T07:11:57.078Z,73.00
2017-12-10T07:14:24.645Z,72.70
2017-12-10T07:16:52.248Z,72.50
2017-12-10T07:19:19.849Z,72.90
2017-12-10T07:21:48.190Z,73.00
2017-12-10T07:24:15.789Z,73.00
2017-12-10T07:26:43.362Z,73.90
2017-12-10T07:29:12.854Z,73.60
2017-12-10T07:31:40.391Z,73.30
2017-12-10T07:34:08.752Z,74.50
2017-12-10T07:36:36.397Z,74.40
2017-12-10T07:39:03.952Z,75.10
2017-12-10T07:41:31.502Z,74.60
2017-12-10T07:43:59.881Z,74.30
2017-12-10T07:46:27.454Z,75.00
2017-12-10T07:48:58.134Z,74.90
2017-12-10T07:51:26.481Z,74.00
2017-12-10T07:54:04.363Z,74.00
2017-12-10T07:56:31.930Z,73.90
2017-12-10T07:58:59.530Z,74.60
2017-12-10T08:01:27.898Z,73.90
2017-12-10T08:03:55.472Z,73.90
2017-12-10T08:06:23.885Z,73.90
2017-12-10T08:08:51.508Z,73.90
2017-12-10T08:11:23.442Z,74.50
2017-12-10T08:13:51.069Z,74.70
2017-12-10T08:16:18.648Z,75.10
2017-12-10T08:18:46.207Z,75.20
2017-12-10T08:21:13.796Z,73.90
2017-12-10T08:23:41.395Z,73.80
2017-12-10T08:26:23.891Z,74.50
2017-12-10T08:28:52.207Z,74.00
2017-12-10T08:31:19.799Z,74.00
2017-12-10T08:33:47.359Z,74.70
2017-12-10T08:36:15.027Z,74.30
2017-12-10T08:38:42.623Z,74.10
2017-12-10T08:41:10.962Z,73.80
2017-12-10T08:43:38.515Z,73.80
2017-12-10T08:46:13.571Z,73.40
2017-12-10T08:48:41.148Z,72.70
2017-12-10T08:51:19.373Z,73.10
2017-12-10T08:53:47.674Z,72.60
2017-12-10T08:56:15.279Z,72.60
2017-12-10T08:58:42.834Z,72.40
2017-12-10T09:01:10.484Z,71.30
2017-12-10T09:03:38.060Z,71.60
2017-12-10T09:06:05.798Z,71.70
2017-12-10T09:08:33.447Z,71.50
2017-12-10T09:11:01.006Z,70.50
2017-12-10T09:13:28.591Z,70.20
2017-12-10T09:15:56.137Z,70.80
2017-12-10T09:18:23.732Z,69.90
2017-12-10T09:20:51.285Z,68.80
2017-12-10T09:23:18.900Z,68.70
2017-12-10T09:28:45.876Z,69.10
2017-12-10T09:31:13.484Z,69.60
2017-12-10T09:33:42.089Z,69.70
2017-12-10T09:36:10.411Z,68.30
2017-12-10T09:38:37.998Z,68.20
2017-12-10T09:41:05.556Z,68.00
2017-12-10T09:43:33.120Z,68.70
2017-12-10T09:46:00.682Z,68.00
2017-12-10T09:48:28.237Z,67.00
2017-12-10T09:50:55.813Z,67.00
2017-12-10T09:53:23.386Z,68.70
2017-12-10T09:58:52.303Z,72.50
2017-12-10T10:01:20.651Z,78.00
2017-12-10T10:03:48.214Z,78.00
2017-12-10T10:06:15.765Z,80.30
2017-12-10T10:08:43.369Z,82.10
2017-12-10T10:11:10.925Z,83.70
2017-12-10T10:13:39.287Z,87.90
2017-12-10T10:16:07.627Z,88.70
2017-12-10T10:18:35.189Z,88.70
2017-12-10T10:21:04.682Z,89.80
2017-12-10T10:23:32.274Z,90.20
2017-12-10T10:25:59.838Z,90.30
2017-12-10T10:28:27.428Z,90.70
2017-12-10T10:30:55.768Z,91.40
2017-12-10T10:33:30.445Z,91.40
2017-12-10T10:35:58.044Z,91.30
2017-12-10T10:38:42.000Z,91.50
2017-12-10T10:41:10.342Z,91.70
2017-12-10T10:43:37.986Z,91.70
2017-12-10T10:46:28.138Z,92.40
2017-12-10T10:48:55.703Z,92.30
2017-12-10T10:51:23.250Z,92.60
2017-12-10T10:53:50.838Z,92.10
2017-12-10T10:56:18.418Z,92.40
2017-12-10T10:58:46.779Z,92.40
2017-12-10T11:01:14.344Z,92.40
2017-12-10T11:03:42.697Z,92.40
2017-12-10T11:06:10.277Z,92.40
2017-12-10T11:08:38.598Z,93.10
2017-12-10T11:11:24.000Z,93.00
2017-12-10T11:13:51.567Z,92.80
2017-12-10T11:16:19.178Z,92.70
2017-12-10T11:18:47.518Z,92.70
2017-12-10T11:21:15.091Z,92.60
2017-12-10T11:23:42.663Z,93.10
2017-12-10T11:26:10.990Z,93.10
2017-12-10T11:28:41.080Z,93.00
2017-12-10T11:31:08.687Z,92.90
2017-12-10T11:33:36.259Z,92.50
2017-12-10T11:36:03.819Z,92.90
2017-12-10T11:38:31.403Z,92.50
2017-12-10T11:40:59.017Z,93.30
2017-12-10T11:43:27.466Z,93.10
2017-12-10T11:45:55.839Z,93.20
2017-12-10T11:48:24.181Z,93.00
2017-12-10T11:50:51.734Z,93.00
2017-12-10T11:53:19.347Z,92.70
2017-12-10T11:55:46.943Z,92.50
2017-12-10T11:58:14.553Z,92.80
2017-12-10T12:00:42.195Z,93.10
2017-12-10T12:03:09.751Z,92.90
2017-12-10T12:05:37.343Z,93.00
2017-12-10T12:08:04.919Z,93.40
2017-12-10T12:10:32.486Z,93.30
2017-12-10T12:13:21.700Z,93.60
2017-12-10T12:15:49.332Z,93.60
2017-12-10T12:18:16.958Z,93.60
2017-12-10T12:20:45.307Z,93.70
2017-12-10T12:23:12.860Z,93.60
2017-12-10T12:25:40.481Z,93.20
2017-12-10T12:28:08.055Z,93.70
2017-12-10T12:30:35.641Z,93.60
2017-12-10T12:33:03.272Z,93.50
2017-12-10T12:35:30.838Z,93.30
2017-12-10T12:37:58.523Z,93.20
2017-12-10T12:40:26.082Z,93.30
2017-12-10T12:42:53.658Z,93.30
2017-12-10T12:45:21.217Z,93.20
2017-12-10T12:47:48.794Z,93.20
2017-12-10T12:50:17.128Z,93.60
2017-12-10T12:52:44.714Z,93.60
2017-12-10T12:55:12.331Z,93.60
2017-12-10T12:57:40.736Z,93.90
2017-12-10T13:00:08.290Z,93.90
2017-12-10T13:02:35.862Z,93.90
2017-12-10T13:05:03.407Z,93.70
2017-12-10T13:07:30.987Z,93.90
2017-12-10T13:09:58.652Z,94.00
2017-12-10T13:12:31.837Z,94.10
2017-12-10T13:14:59.399Z,94.10
2017-12-10T13:17:27.982Z,94.20
2017-12-10T13:19:55.596Z,94.10
2017-12-10T13:22:23.157Z,94.00
2017-12-10T13:24:55.708Z,94.30
2017-12-10T13:27:23.264Z,94.70
2017-12-10T13:29:50.815Z,94.70
2017-12-10T13:32:20.325Z,94.60
2017-12-10T13:34:47.883Z,94.60
2017-12-10T13:37:18.836Z,94.50
2017-12-10T13:39:53.280Z,94.70
2017-12-10T13:42:22.061Z,94.60
2017-12-10T13:44:50.363Z,94.40
2017-12-10T13:47:17.914Z,94.40
2017-12-10T13:49:45.587Z,94.20
2017-12-10T13:52:13.140Z,94.10
2017-12-10T13:54:45.607Z,94.10
2017-12-10T13:57:13.166Z,94.00
2017-12-10T13:59:40.739Z,94.00
2017-12-10T14:02:08.986Z,94.10
2017-12-10T14:04:36.559Z,94.30
2017-12-10T14:07:04.165Z,94.40
2017-12-10T14:09:31.752Z,94.60
2017-12-10T14:11:59.315Z,94.70
2017-12-10T14:14:26.861Z,94.80
2017-12-10T14:17:00.598Z,94.60
2017-12-10T14:19:28.923Z,94.90
2017-12-10T14:21:56.534Z,94.80
2017-12-10T14:24:24.110Z,95.00
2017-12-10T14:26:52.070Z,95.00
2017-12-10T14:29:20.417Z,95.00
2017-12-10T14:31:48.070Z,95.00
2017-12-10T14:34:16.638Z,95.00
2017-12-10T14:36:44.191Z,95.30
2017-12-10T14:39:13.696Z,95.30
2017-12-10T14:41:41.264Z,95.40
2017-12-10T14:44:08.828Z,95.60
2017-12-10T14:46:36.382Z,95.60
2017-12-10T14:49:28.531Z,95.70
2017-12-10T14:51:56.126Z,95.80
2017-12-10T14:54:23.643Z,95.90
2017-12-10T14:56:51.179Z,95.90
2017-12-10T14:59:18.751Z,96.00
2017-12-10T15:01:46.313Z,96.10
2017-12-10T15:04:13.870Z,96.20
2017-12-10T15:06:41.426Z,96.30
2017-12-10T15:09:08.989Z,96.50
2017-12-10T15:11:36.558Z,96.60
2017-12-10T15:14:05.053Z,96.80
2017-12-10T15:16:32.611Z,96.90
2017-12-10T15:19:00.915Z,97.20
2017-12-10T15:21:28.459Z,97.20
2017-12-10T15:23:56.060Z,97.20
2017-12-10T15:26:24.393Z,97.00
2017-12-10T15:28:51.939Z,96.90
2017-12-10T15:31:19.510Z,97.00
2017-12-10T15:33:47.132Z,97.10
2017-12-10T15:36:14.706Z,97.30
2017-12-10T15:38:42.266Z,97.40
2017-12-10T15:41:09.846Z,97.40
2017-12-10T15:43:37.387Z,97.40
2017-12-10T15:46:04.943Z,97.40
2017-12-10T15:48:32.523Z,97.60
2017-12-10T15:51:00.884Z,97.50
2017-12-10T15:53:31.455Z,97.50
2017-12-10T15:55:59.043Z,97.60
2017-12-10T15:58:27.378Z,97.60
2017-12-10T16:00:54.984Z,97.60
2017-12-10T16:03:23.346Z,97.80
2017-12-10T16:05:50.954Z,97.80
2017-12-10T16:08:18.534Z,98.00
2017-12-10T16:10:46.086Z,99.90
2017-12-10T16:13:13.643Z,99.90
2017-12-10T16:15:41.196Z,99.90
2017-12-10T16:18:08.795Z,99.90
2017-12-10T16:20:36.369Z,99.60
2017-12-10T16:23:03.920Z,99.30
2017-12-10T16:25:31.478Z,98.60
2017-12-10T16:27:59.035Z,97.90
2017-12-10T16:30:26.623Z,97.90
2017-12-10T16:32:54.211Z,97.70
2017-12-10T16:35:21.797Z,97.30
2017-12-10T16:37:50.142Z,96.90
2017-12-10T16:40:18.494Z,96.70
2017-12-10T16:42:46.091Z,96.70
2017-12-10T16:45:13.671Z,96.90
2017-12-10T16:47:41.218Z,96.90
2017-12-10T16:50:08.797Z,96.90
2017-12-10T16:52:36.350Z,97.30
2017-12-10T16:55:03.910Z,97.10
2017-12-10T16:57:31.456Z,97.20
2017-12-10T16:59:59.059Z,97.00
2017-12-10T17:02:27.546Z,97.00
2017-12-10T17:04:55.078Z,97.00
2017-12-10T17:07:22.671Z,96.80
2017-12-10T17:09:51.213Z,96.70
2017-12-10T17:12:18.762Z,96.60
2017-12-10T17:14:46.311Z,96.90
2017-12-10T17:17:13.865Z,96.70
2017-12-10T17:19:42.969Z,96.40
2017-12-10T17:22:10.510Z,96.40
2017-12-10T17:24:38.074Z,96.60
2017-12-10T17:27:05.646Z,96.40
2017-12-10T17:29:33.203Z,96.50
2017-12-10T17:32:01.556Z,96.50
2017-12-10T17:34:29.122Z,96.50
2017-12-10T17:36:56.653Z,96.40
2017-12-10T17:39:25.231Z,96.10
2017-12-10T17:41:52.777Z,96.00
2017-12-10T17:44:22.282Z,96.00
2017-12-10T17:46:49.841Z,95.50
2017-12-10T17:49:22.347Z,95.20
2017-12-10T17:51:50.904Z,94.90
2017-12-10T17:54:30.739Z,94.80
2017-12-10T17:56:58.274Z,94.90
2017-12-10T17:59:26.597Z,94.50
2017-12-10T18:01:54.183Z,94.40
2017-12-10T18:04:21.733Z,94.20
2017-12-10T18:06:50.152Z,94.00
2017-12-10T18:09:17.735Z,94.00
2017-12-10T18:11:46.098Z,93.40
2017-12-10T18:14:14.403Z,93.20
2017-12-10T18:16:43.916Z,93.20
2017-12-10T18:19:11.486Z,93.30
2017-12-10T18:21:40.047Z,93.30
2017-12-10T18:24:07.602Z,92.90
2017-12-10T18:26:36.160Z,93.00
2017-12-10T18:29:04.519Z,92.60
2017-12-10T18:31:33.206Z,92.60
2017-12-10T18:34:00.759Z,92.60
2017-12-10T18:36:28.342Z,92.90
2017-12-10T18:39:04.542Z,93.70
2017-12-10T18:41:32.858Z,93.40
2017-12-10T18:44:00.471Z,93.30
2017-12-10T18:46:28.056Z,93.40
2017-12-10T18:48:55.622Z,93.30
2017-12-10T18:51:23.186Z,93.50
2017-12-10T18:53:50.738Z,93.40
2017-12-10T18:56:18.336Z,93.50
2017-12-10T18:58:45.907Z,93.50
2017-12-10T19:01:14.256Z,93.30
2017-12-10T19:03:42.836Z,93.30
2017-12-10T19:06:10.377Z,93.20
2017-12-10T19:08:42.723Z,93.10
2017-12-10T19:11:14.140Z,93.10
2017-12-10T19:13:41.733Z,92.80
2017-12-10T19:16:09.319Z,92.60
2017-12-10T19:18:36.877Z,92.50
2017-12-10T19:21:04.435Z,92.40
2017-12-10T19:23:31.997Z,92.40
2017-12-10T19:25:59.561Z,92.60
2017-12-10T19:28:27.130Z,92.50
2017-12-10T19:30:54.684Z,92.40
2017-12-10T19:33:22.242Z,92.50
2017-12-10T19:35:49.802Z,92.20
2017-12-10T19:38:17.384Z,92.10
2017-12-10T19:40:44.951Z,92.10
2017-12-10T19:43:12.505Z,91.90
2017-12-10T19:45:40.066Z,91.80
2017-12-10T19:48:07.626Z,91.70
2017-12-10T19:50:35.195Z,91.70
2017-12-10T19:53:02.773Z,91.70
2017-12-10T19:55:30.315Z,91.60
2017-12-10T19:57:57.895Z,91.80
2017-12-10T20:00:25.501Z,91.10
2017-12-10T20:02:53.104Z,91.20
2017-12-10T20:05:20.666Z,91.10
2017-12-10T20:07:48.253Z,91.20
2017-12-10T20:10:16.555Z,91.00
2017-12-10T20:12:44.134Z,91.00
2017-12-10T20:15:15.595Z,90.90
2017-12-10T20:17:43.163Z,90.90
2017-12-10T20:20:10.748Z,91.00
2017-12-10T20:22:38.311Z,90.90
2017-12-10T20:25:06.622Z,90.90
2017-12-10T20:27:34.180Z,90.90
2017-12-10T20:30:01.746Z,90.90
2017-12-10T20:32:29.354Z,90.90
2017-12-10T20:34:56.906Z,90.90
2017-12-10T20:37:24.465Z,90.90
2017-12-10T20:39:52.020Z,90.60
2017-12-10T20:42:19.576Z,90.60
2017-12-10T20:44:47.164Z,90.60
2017-12-10T20:47:14.710Z,90.60
2017-12-10T20:49:42.278Z,90.70
2017-12-10T20:52:09.830Z,90.30
2017-12-10T20:54:37.408Z,90.30
2017-12-10T20:57:04.998Z,90.00
2017-12-10T20:59:32.690Z,89.90
2017-12-10T21:02:00.240Z,90.00
2017-12-10T21:04:27.783Z,90.00
2017-12-10T21:06:55.334Z,90.00
2017-12-10T21:09:22.917Z,89.70
2017-12-10T21:11:50.492Z,89.90
2017-12-10T21:14:18.113Z,89.70
2017-12-10T21:16:46.430Z,89.00
2017-12-10T21:19:14.226Z,88.90
2017-12-10T21:21:41.807Z,89.40
2017-12-10T21:24:09.412Z,89.20
2017-12-10T21:26:36.979Z,89.00
2017-12-10T21:29:04.551Z,88.90
2017-12-10T21:31:32.126Z,89.20
2017-12-10T21:33:59.748Z,88.90
2017-12-10T21:36:27.298Z,89.50
2017-12-10T21:38:54.851Z,89.60
2017-12-10T21:41:22.411Z,89.60
2017-12-10T21:43:49.984Z,89.60
2017-12-10T21:46:17.572Z,89.90
2017-12-10T21:48:45.172Z,89.90
2017-12-10T21:51:13.505Z,89.70
2017-12-10T21:53:41.070Z,89.60
2017-12-10T21:56:08.631Z,89.70
2017-12-10T21:58:36.262Z,89.70
2017-12-10T22:01:03.836Z,89.50
2017-12-10T22:03:31.395Z,90.00
2017-12-10T22:05:58.966Z,90.10
2017-12-10T22:08:26.543Z,90.10
2017-12-10T22:10:54.161Z,89.90
2017-12-10T22:13:21.752Z,89.80
2017-12-10T22:15:49.859Z,89.70
2017-12-10T22:18:18.203Z,90.00
2017-12-10T22:20:45.765Z,90.00
2017-12-10T22:23:13.344Z,90.10
2017-12-10T22:25:40.888Z,90.00
2017-12-10T22:28:09.290Z,90.10
2017-12-10T22:30:36.866Z,90.10
2017-12-10T22:33:05.193Z,90.00
2017-12-10T22:35:32.773Z,90.00
2017-12-10T22:38:00.341Z,90.10
2017-12-10T22:40:27.891Z,90.10
2017-12-10T22:42:55.457Z,90.00
2017-12-10T22:45:23.011Z,90.20
2017-12-10T22:47:50.588Z,90.30
2017-12-10T22:50:18.140Z,90.40
2017-12-10T22:52:45.712Z,90.50
2017-12-10T22:55:13.269Z,90.70
2017-12-10T22:57:40.822Z,90.80
2017-12-10T23:00:08.407Z,90.90
2017-12-10T23:02:36.750Z,91.00
2017-12-10T23:05:04.287Z,91.00
2017-12-10T23:07:31.851Z,91.10
2017-12-10T23:09:59.386Z,91.10
2017-12-10T23:12:27.751Z,91.30
2017-12-10T23:15:22.028Z,91.40
2017-12-10T23:17:50.368Z,91.60
2017-12-10T23:20:33.623Z,91.60
2017-12-10T23:23:01.190Z,91.70
2017-12-10T23:25:28.740Z,91.80
2017-12-10T23:27:56.286Z,92.00
2017-12-10T23:30:23.857Z,92.00
2017-12-10T23:32:51.413Z,92.10
2017-12-10T23:35:19.006Z,92.20
2017-12-10T23:37:47.335Z,92.20
2017-12-10T23:40:14.883Z,92.20
2017-12-10T23:42:42.509Z,92.20
2017-12-10T23:45:10.842Z,92.40
2017-12-10T23:47:38.417Z,92.40
2017-12-10T23:50:05.949Z,92.50
2017-12-10T23:52:33.486Z,92.70
2017-12-10T23:55:01.034Z,92.80
2017-12-10T23:57:29.331Z,93.00
2017-12-10T23:59:56.920Z,93.00
